Time;durP1;ratioP1;P1;durP2;ratioP2;P2;SDS_P1;SDS_P2;PMS_P1;PMS_P2;Temp;Humidity;BMP_temperature;BMP_pressure;BME280_temperature;BME280_humidity;BME280_pressure;Samples;Min_cycle;Max_cycle;Signal;HPM_P1;HPM_P2
2022/05/14 00:01:06;;;;;;;31.63;9.70;;;12.70;99.90;;;;;;4996255;28;20053;-80
2022/05/14 00:03:33;;;;;;;28.85;8.93;;;12.70;99.90;;;;;;4996212;28;20034;-80
2022/05/14 00:06:01;;;;;;;35.85;9.35;;;12.70;99.90;;;;;;4996444;28;20119;-80
2022/05/14 00:08:29;;;;;;;30.45;9.20;;;12.70;99.90;;;;;;4996023;28;20397;-81
2022/05/14 00:13:39;;;;;;;25.38;8.63;;;12.70;99.90;;;;;;4996072;28;20492;-81
2022/05/14 00:16:06;;;;;;;33.47;9.90;;;12.70;99.90;;;;;;4996397;28;20073;-80
2022/05/14 00:18:32;;;;;;;28.63;9.20;;;12.70;99.90;;;;;;5013617;28;20539;-80
2022/05/14 00:20:59;;;;;;;34.17;9.20;;;12.70;99.90;;;;;;4996236;28;20050;-81
2022/05/14 00:23:26;;;;;;;34.13;9.90;;;12.70;99.90;;;;;;4996297;28;20050;-80
2022/05/14 00:25:52;;;;;;;31.73;9.38;;;12.70;99.90;;;;;;5013473;28;20379;-80
2022/05/14 00:28:18;;;;;;;28.75;9.75;;;12.70;99.90;;;;;;4995994;28;20544;-80
2022/05/14 00:30:44;;;;;;;35.00;10.05;;;12.70;99.90;;;;;;4996012;28;20045;-82
2022/05/14 00:33:10;;;;;;;32.65;10.02;;;12.70;99.90;;;;;;4996049;28;20050;-81
2022/05/14 00:35:39;;;;;;;33.58;10.80;;;12.70;99.90;;;;;;4995568;28;20107;-81
2022/05/14 00:38:05;;;;;;;33.50;10.65;;;12.70;99.90;;;;;;4995847;28;20060;-80
2022/05/14 00:40:37;;;;;;;29.48;10.15;;;12.80;99.90;;;;;;4995704;28;20042;-79
2022/05/14 00:43:03;;;;;;;34.08;10.40;;;12.80;99.90;;;;;;4996201;28;20538;-80
2022/05/14 00:45:32;;;;;;;37.10;11.68;;;12.80;99.90;;;;;;4996117;28;20124;-80
2022/05/14 00:48:00;;;;;;;39.05;10.70;;;12.80;99.90;;;;;;4995658;28;20053;-80
2022/05/14 00:50:38;;;;;;;38.47;10.10;;;12.80;99.90;;;;;;5013527;28;20038;-83
2022/05/14 00:53:18;;;;;;;33.83;12.20;;;12.80;99.90;;;;;;4996096;28;20095;-80
2022/05/14 00:55:46;;;;;;;34.25;11.15;;;12.70;99.90;;;;;;4995690;28;20054;-80
2022/05/14 00:58:29;;;;;;;33.28;11.40;;;12.80;99.90;;;;;;5013377;28;20049;-80
2022/05/14 01:00:55;;;;;;;32.28;11.25;;;12.70;99.90;;;;;;4999261;28;20050;-80
2022/05/14 01:03:21;;;;;;;34.63;10.30;;;12.70;99.90;;;;;;4999531;28;20053;-80
2022/05/14 01:05:47;;;;;;;31.80;11.32;;;12.60;99.90;;;;;;4999243;28;20049;-80
2022/05/14 01:08:13;;;;;;;34.50;10.25;;;12.60;99.90;;;;;;4999278;28;20057;-81
2022/05/14 01:10:42;;;;;;;35.95;11.23;;;12.50;99.90;;;;;;4999188;28;20053;-81
2022/05/14 01:13:08;;;;;;;40.00;12.05;;;12.50;99.90;;;;;;4999038;28;20061;-81
2022/05/14 01:15:40;;;;;;;35.03;11.80;;;12.50;99.90;;;;;;5016421;28;20050;-80
2022/05/14 01:18:05;;;;;;;43.47;12.32;;;12.40;99.90;;;;;;5016571;28;20045;-81
2022/05/14 01:20:35;;;;;;;37.10;11.75;;;12.40;99.90;;;;;;5016576;28;20041;-80
2022/05/14 01:23:09;;;;;;;42.75;12.13;;;12.40;99.90;;;;;;4999009;28;20046;-80
2022/05/14 01:28:25;;;;;;;44.05;11.48;;;12.30;99.90;;;;;;4998862;28;20058;-81
2022/05/14 01:30:54;;;;;;;41.85;12.77;;;12.30;99.90;;;;;;4998745;28;20049;-81
2022/05/14 01:33:20;;;;;;;35.17;11.98;;;12.30;99.90;;;;;;4998671;28;20045;-81
2022/05/14 01:35:46;;;;;;;41.25;11.85;;;12.30;99.90;;;;;;4998374;28;20065;-80
2022/05/14 01:38:12;;;;;;;40.10;11.52;;;12.20;99.90;;;;;;4998543;28;20053;-81
2022/05/14 01:40:37;;;;;;;48.47;12.57;;;12.30;99.90;;;;;;4998526;28;20123;-82
2022/05/14 01:43:06;;;;;;;34.30;11.05;;;12.20;99.90;;;;;;4998603;28;20499;-81
2022/05/14 01:45:33;;;;;;;44.88;12.02;;;12.20;99.90;;;;;;4998574;28;20049;-81
2022/05/14 01:47:59;;;;;;;34.35;11.45;;;12.10;99.90;;;;;;4998796;28;20121;-81
2022/05/14 01:50:24;;;;;;;41.17;11.98;;;12.10;99.90;;;;;;4998271;28;20129;-80
2022/05/14 01:52:50;;;;;;;37.15;12.57;;;12.10;99.90;;;;;;4999326;28;20074;-81
2022/05/14 01:55:16;;;;;;;43.47;12.23;;;12.10;99.90;;;;;;4998324;28;20108;-81
2022/05/14 01:57:41;;;;;;;48.15;12.10;;;12.00;99.90;;;;;;4998383;28;20562;-81
2022/05/14 02:00:10;;;;;;;45.33;12.57;;;12.00;99.90;;;;;;4998888;28;20133;-80
2022/05/14 02:02:35;;;;;;;42.33;11.63;;;12.00;99.90;;;;;;4998299;28;20089;-80
2022/05/14 02:05:01;;;;;;;41.55;11.57;;;11.90;99.90;;;;;;4998584;28;20074;-80
2022/05/14 02:07:27;;;;;;;42.20;12.27;;;11.90;99.90;;;;;;4998351;28;20089;-80
2022/05/14 02:09:52;;;;;;;41.53;12.57;;;11.90;99.90;;;;;;4997982;28;20570;-80
2022/05/14 02:12:18;;;;;;;45.10;11.40;;;11.90;99.90;;;;;;5014668;28;20489;-80
2022/05/14 02:14:45;;;;;;;44.45;11.82;;;11.80;99.90;;;;;;5015503;28;20489;-80
2022/05/14 02:17:12;;;;;;;46.40;12.27;;;11.80;99.90;;;;;;5015571;28;20064;-80
2022/05/14 02:19:37;;;;;;;41.70;11.68;;;11.80;99.90;;;;;;4997851;28;20099;-80
2022/05/14 02:22:05;;;;;;;38.95;12.65;;;11.80;99.90;;;;;;4998071;28;20042;-80
2022/05/14 02:24:32;;;;;;;44.38;12.52;;;11.70;99.90;;;;;;4997772;28;20088;-80
2022/05/14 02:26:57;;;;;;;44.65;12.65;;;11.70;99.90;;;;;;4997787;28;20088;-80
2022/05/14 02:29:24;;;;;;;38.85;12.63;;;11.70;99.90;;;;;;4997716;28;20045;-82
2022/05/14 02:31:50;;;;;;;43.30;13.18;;;11.70;99.90;;;;;;4997756;28;20053;-80
2022/05/14 02:34:16;;;;;;;49.00;13.85;;;11.60;99.90;;;;;;5014893;28;20042;-80
2022/05/14 02:36:41;;;;;;;38.97;12.27;;;11.60;99.90;;;;;;5015001;28;20066;-80
2022/05/14 02:39:10;;;;;;;45.00;13.82;;;11.60;99.90;;;;;;4997400;28;20041;-81
2022/05/14 02:41:36;;;;;;;45.33;13.30;;;11.50;99.90;;;;;;4997404;28;20050;-81
2022/05/14 02:44:03;;;;;;;38.72;11.95;;;11.50;99.90;;;;;;5014921;28;20042;-81
2022/05/14 02:46:28;;;;;;;51.42;12.27;;;11.50;99.90;;;;;;5014986;28;20046;-81
2022/05/14 02:48:54;;;;;;;47.50;13.00;;;11.50;99.90;;;;;;4997235;28;20050;-80
2022/05/14 02:51:20;;;;;;;44.67;12.15;;;11.50;99.90;;;;;;4997534;28;20129;-80
2022/05/14 02:53:46;;;;;;;57.25;12.40;;;11.50;99.90;;;;;;4997473;28;20152;-80
2022/05/14 02:56:11;;;;;;;41.75;11.93;;;11.50;99.90;;;;;;5014723;28;20042;-80
2022/05/14 03:01:21;;;;;;;50.30;13.95;;;11.50;99.90;;;;;;4997508;28;20096;-80
2022/05/14 03:03:46;;;;;;;40.22;11.70;;;11.50;99.90;;;;;;4997992;28;20474;-80
2022/05/14 03:06:13;;;;;;;57.33;16.77;;;11.50;99.90;;;;;;5014486;28;20504;-80
2022/05/14 03:08:38;;;;;;;48.90;11.88;;;11.40;99.90;;;;;;4997012;28;20050;-80
2022/05/14 03:11:04;;;;;;;42.70;12.38;;;11.40;99.90;;;;;;4997269;28;20116;-80
2022/05/14 03:13:30;;;;;;;48.20;12.60;;;11.40;99.90;;;;;;4996878;28;20044;-80
2022/05/14 03:15:56;;;;;;;46.20;13.52;;;11.40;99.90;;;;;;4997016;28;20123;-80
2022/05/14 03:18:22;;;;;;;40.80;13.32;;;11.40;99.90;;;;;;5014492;28;20038;-80
2022/05/14 03:20:48;;;;;;;37.72;11.80;;;11.40;99.90;;;;;;4997008;28;20050;-80
2022/05/14 03:23:15;;;;;;;47.92;12.20;;;11.40;99.90;;;;;;4996145;28;20049;-80
2022/05/14 03:25:40;;;;;;;45.03;12.07;;;11.40;99.90;;;;;;5014027;28;20126;-79
2022/05/14 03:28:06;;;;;;;44.75;11.45;;;11.40;99.90;;;;;;4996666;28;20144;-80
2022/05/14 03:30:35;;;;;;;37.22;11.88;;;11.40;99.90;;;;;;4996180;28;20398;-80
2022/05/14 03:33:01;;;;;;;44.05;12.40;;;11.40;99.90;;;;;;5013228;28;20119;-80
2022/05/14 03:35:26;;;;;;;38.47;10.73;;;11.30;99.90;;;;;;4995358;28;20054;-81
2022/05/14 03:37:52;;;;;;;38.45;11.88;;;11.20;99.90;;;;;;4996315;28;20398;-81
2022/05/14 03:40:18;;;;;;;33.15;12.70;;;11.20;99.90;;;;;;4996307;28;20128;-81
2022/05/14 03:42:45;;;;;;;45.45;11.82;;;11.20;99.90;;;;;;4996356;28;20081;-81
2022/05/14 03:45:11;;;;;;;41.90;12.13;;;11.20;99.90;;;;;;4996172;28;20552;-81
2022/05/14 03:47:36;;;;;;;53.20;11.48;;;11.20;99.90;;;;;;4996034;28;20136;-81
2022/05/14 03:50:02;;;;;;;61.03;12.70;;;11.20;99.90;;;;;;5013682;28;20485;-80
2022/05/14 03:52:28;;;;;;;41.05;11.68;;;11.20;99.90;;;;;;4996088;28;20050;-80
2022/05/14 03:54:53;;;;;;;41.97;12.98;;;11.20;99.90;;;;;;5013803;28;20058;-81
2022/05/14 03:57:19;;;;;;;45.00;12.82;;;11.20;99.90;;;;;;5013601;28;20046;-81
2022/05/14 03:59:45;;;;;;;35.17;10.02;;;11.10;99.90;;;;;;4996354;28;20042;-81
2022/05/14 04:02:10;;;;;;;33.47;11.35;;;11.10;99.90;;;;;;5013751;28;20616;-81
2022/05/14 04:04:36;;;;;;;43.10;11.88;;;11.10;99.90;;;;;;4995947;28;20050;-81
2022/05/14 04:07:02;;;;;;;44.85;11.70;;;11.00;99.90;;;;;;4995875;28;20081;-81
2022/05/14 04:09:28;;;;;;;39.08;9.98;;;11.00;99.90;;;;;;4995936;28;20046;-81
2022/05/14 04:11:54;;;;;;;35.15;12.10;;;11.00;99.90;;;;;;5013438;28;20044;-80
2022/05/14 04:14:23;;;;;;;45.20;11.75;;;11.00;99.90;;;;;;4995923;28;20049;-80
2022/05/14 04:16:49;;;;;;;41.83;11.05;;;11.10;99.90;;;;;;4995855;28;20073;-81
2022/05/14 04:19:14;;;;;;;30.35;10.75;;;11.00;99.90;;;;;;5013425;28;20073;-81
2022/05/14 04:21:43;;;;;;;35.40;11.68;;;11.10;99.90;;;;;;5013362;28;20057;-81
2022/05/14 04:24:09;;;;;;;47.55;12.02;;;11.10;99.90;;;;;;4996395;28;20041;-80
2022/05/14 04:26:34;;;;;;;46.33;11.57;;;11.10;99.90;;;;;;5013333;28;20378;-81
2022/05/14 04:29:00;;;;;;;39.00;11.68;;;11.10;99.90;;;;;;5013587;28;20084;-80
2022/05/14 04:31:26;;;;;;;35.58;12.15;;;11.20;99.90;;;;;;4995722;28;20045;-81
2022/05/14 04:33:51;;;;;;;37.78;11.65;;;11.20;99.90;;;;;;4997974;28;20045;-81
2022/05/14 04:36:18;;;;;;;38.80;11.02;;;11.30;99.90;;;;;;4999534;28;20058;-80
2022/05/14 04:38:44;;;;;;;32.55;12.05;;;11.30;99.90;;;;;;4999883;28;20123;-80
2022/05/14 04:41:09;;;;;;;42.05;11.90;;;11.40;99.90;;;;;;4999551;28;20482;-81
2022/05/14 04:43:35;;;;;;;39.22;10.50;;;11.50;99.90;;;;;;4999364;28;20046;-81
2022/05/14 04:46:06;;;;;;;42.60;11.10;;;11.50;99.90;;;;;;4999466;28;20046;-81
2022/05/14 04:48:31;;;;;;;37.78;11.75;;;11.60;99.90;;;;;;4999418;28;20517;-81
2022/05/14 04:50:57;;;;;;;43.05;12.85;;;11.70;99.90;;;;;;4999352;28;20092;-81
2022/05/14 04:53:23;;;;;;;35.95;10.20;;;11.70;99.90;;;;;;4999182;28;20077;-80
2022/05/14 04:55:50;;;;;;;34.17;12.50;;;11.90;99.90;;;;;;4999267;28;20054;-80
2022/05/14 04:58:15;;;;;;;52.10;11.93;;;12.00;99.90;;;;;;4999385;28;20045;-81
2022/05/14 05:00:41;;;;;;;39.70;11.52;;;12.00;99.90;;;;;;5016951;28;20546;-80
2022/05/14 05:03:19;;;;;;;35.08;11.63;;;12.10;99.90;;;;;;4999364;28;20062;-81
2022/05/14 05:05:46;;;;;;;30.40;10.45;;;12.20;99.90;;;;;;4999405;28;20057;-81
2022/05/14 05:08:12;;;;;;;36.05;11.75;;;12.20;99.90;;;;;;4998979;28;20054;-81
2022/05/14 05:10:38;;;;;;;44.22;11.93;;;12.30;99.90;;;;;;4998895;28;20052;-80
2022/05/14 05:13:07;;;;;;;34.10;10.75;;;12.40;99.90;;;;;;4999264;28;20049;-81
2022/05/14 05:15:33;;;;;;;40.63;11.77;;;12.60;99.90;;;;;;4998873;28;20053;-81
2022/05/14 05:17:58;;;;;;;28.55;9.68;;;12.60;99.90;;;;;;4999007;28;20053;-80
2022/05/14 05:20:24;;;;;;;34.40;9.82;;;12.70;99.90;;;;;;4999062;28;20061;-80
2022/05/14 05:22:50;;;;;;;36.47;9.48;;;12.80;99.90;;;;;;4998716;28;20125;-80
2022/05/14 05:25:15;;;;;;;35.65;9.95;;;12.80;99.90;;;;;;5016502;28;20042;-81
2022/05/14 05:27:41;;;;;;;41.95;10.30;;;12.90;99.90;;;;;;4998642;28;20084;-81
2022/05/14 05:30:08;;;;;;;43.92;9.32;;;13.10;99.90;;;;;;4999074;28;20092;-80
2022/05/14 05:32:34;;;;;;;34.42;9.10;;;13.20;99.90;;;;;;5016337;28;20072;-80
2022/05/14 05:34:59;;;;;;;29.73;7.03;;;13.30;99.90;;;;;;4998601;28;20046;-81
2022/05/14 05:37:25;;;;;;;26.17;5.90;;;13.50;99.90;;;;;;4998381;28;20354;-80
2022/05/14 05:39:51;;;;;;;27.80;6.43;;;13.60;99.90;;;;;;5016292;28;20046;-80
2022/05/14 05:42:16;;;;;;;25.63;5.68;;;13.80;99.90;;;;;;4998725;28;20069;-81
2022/05/14 05:44:42;;;;;;;25.15;6.28;;;13.90;99.90;;;;;;4997763;28;20124;-81
2022/05/14 05:47:08;;;;;;;27.23;6.35;;;14.10;99.90;;;;;;4998357;28;20049;-81
2022/05/14 05:49:35;;;;;;;33.78;6.18;;;14.20;99.90;;;;;;4998630;28;20125;-81
2022/05/14 05:52:00;;;;;;;33.50;6.15;;;14.30;99.90;;;;;;4998312;28;20084;-80
2022/05/14 05:57:10;;;;;;;23.70;6.15;;;14.40;99.90;;;;;;4998207;28;20054;-81
2022/05/14 05:59:36;;;;;;;29.08;6.43;;;14.50;99.90;;;;;;4998349;28;20052;-80
2022/05/14 06:02:02;;;;;;;35.10;6.57;;;14.60;99.90;;;;;;5015715;28;20046;-80
2022/05/14 06:04:28;;;;;;;32.85;6.82;;;14.70;99.90;;;;;;4997991;28;20494;-80
2022/05/14 06:06:53;;;;;;;29.42;6.05;;;14.80;99.90;;;;;;4998198;28;20128;-80
2022/05/14 06:09:22;;;;;;;27.20;6.45;;;14.90;99.90;;;;;;4998179;28;20042;-80
2022/05/14 06:11:50;;;;;;;23.58;5.53;;;15.00;99.90;;;;;;4998035;28;20049;-81
2022/05/14 06:14:16;;;;;;;38.13;6.78;;;15.00;99.90;;;;;;4997767;28;20096;-80
2022/05/14 06:16:42;;;;;;;27.50;5.88;;;15.10;99.90;;;;;;4997895;28;20053;-80
2022/05/14 06:19:08;;;;;;;32.47;7.28;;;15.10;99.90;;;;;;4997724;28;20057;-80
2022/05/14 06:21:36;;;;;;;28.02;6.70;;;15.20;99.90;;;;;;5015422;28;20045;-80
2022/05/14 06:24:02;;;;;;;27.75;6.60;;;15.30;99.90;;;;;;5015161;28;20484;-80
2022/05/14 06:26:28;;;;;;;39.00;6.50;;;15.50;99.90;;;;;;5015476;28;20046;-81
2022/05/14 06:28:54;;;;;;;31.70;7.28;;;15.40;99.90;;;;;;4997927;28;20050;-81
2022/05/14 06:31:20;;;;;;;34.40;6.97;;;15.60;99.90;;;;;;4997653;28;20386;-81
2022/05/14 06:33:47;;;;;;;29.58;6.28;;;15.60;99.90;;;;;;4997438;28;20046;-80
2022/05/14 06:36:14;;;;;;;33.45;6.93;;;15.70;99.90;;;;;;4999013;28;20045;-79
2022/05/14 06:38:40;;;;;;;29.40;5.75;;;15.70;99.90;;;;;;5005736;28;20494;-79
2022/05/14 06:41:07;;;;;;;32.78;6.10;;;15.90;99.90;;;;;;4997475;28;20064;-78
2022/05/14 06:43:33;;;;;;;29.35;8.35;;;16.00;99.90;;;;;;4997255;28;20116;-78
2022/05/14 06:45:58;;;;;;;31.20;5.75;;;16.10;99.90;;;;;;4997299;28;20061;-78
2022/05/14 06:48:24;;;;;;;35.25;6.40;;;16.10;99.90;;;;;;4997032;28;20044;-78
2022/05/14 06:50:50;;;;;;;35.35;7.07;;;16.30;99.90;;;;;;4997166;28;20137;-80
2022/05/14 06:53:19;;;;;;;33.70;5.95;;;16.30;99.90;;;;;;4996886;28;20053;-79
2022/05/14 06:55:47;;;;;;;36.50;7.60;;;16.50;99.90;;;;;;4996643;28;20057;-78
2022/05/14 06:58:19;;;;;;;26.83;6.45;;;16.50;99.90;;;;;;4995950;28;20042;-80
2022/05/14 07:00:46;;;;;;;33.50;7.23;;;16.70;99.90;;;;;;5014402;28;20061;-79
2022/05/14 07:08:41;;;;;;;28.08;6.00;;;16.90;99.90;;;;;;4996842;28;20056;-82
2022/05/14 07:11:09;;;;;;;28.13;5.60;;;17.00;99.90;;;;;;4996546;28;20050;-80
2022/05/14 07:13:35;;;;;;;28.00;6.93;;;16.90;99.90;;;;;;4996747;28;20054;-78
2022/05/14 07:16:01;;;;;;;35.22;6.93;;;17.00;99.90;;;;;;4996824;28;20107;-81
2022/05/14 07:18:26;;;;;;;26.90;7.75;;;17.10;99.90;;;;;;4996522;28;20076;-79
2022/05/14 07:20:52;;;;;;;26.85;6.05;;;16.90;99.90;;;;;;4996763;28;20069;-80
2022/05/14 07:23:17;;;;;;;33.50;6.95;;;17.00;99.90;;;;;;4996608;28;20397;-81
2022/05/14 07:25:43;;;;;;;33.50;6.88;;;17.10;99.90;;;;;;4996595;28;20042;-79
2022/05/14 07:28:09;;;;;;;25.98;5.82;;;17.10;99.90;;;;;;4996333;28;20085;-82
2022/05/14 07:30:35;;;;;;;39.60;7.47;;;16.80;99.90;;;;;;5014168;28;20113;-78
2022/05/14 07:33:01;;;;;;;30.67;6.00;;;17.10;99.90;;;;;;5012837;28;20049;-79
2022/05/14 07:35:27;;;;;;;31.88;7.78;;;17.20;99.90;;;;;;5013471;28;20401;-79
2022/05/14 07:37:56;;;;;;;34.90;6.47;;;17.30;99.90;;;;;;4996378;28;20064;-79
2022/05/14 07:40:26;;;;;;;30.45;6.50;;;17.40;99.90;;;;;;4996010;28;20460;-81
2022/05/14 07:43:07;;;;;;;30.17;6.60;;;17.50;99.90;;;;;;4996140;28;20401;-79
2022/05/14 07:45:41;;;;;;;28.80;6.57;;;17.70;99.90;;;;;;5003422;28;20053;-79
2022/05/14 07:48:32;;;;;;;29.45;6.78;;;17.80;99.90;;;;;;5025318;28;20459;-78
2022/05/14 07:50:59;;;;;;;34.95;6.88;;;17.80;99.90;;;;;;5002639;28;20510;-79
2022/05/14 07:53:30;;;;;;;35.15;6.68;;;17.90;99.90;;;;;;5015883;28;20535;-79
2022/05/14 07:56:00;;;;;;;38.83;6.43;;;18.00;99.90;;;;;;5015539;28;20060;-79
2022/05/14 07:58:26;;;;;;;28.95;6.32;;;18.10;99.90;;;;;;5015891;28;20056;-80
2022/05/14 08:00:52;;;;;;;28.58;7.20;;;18.00;99.90;;;;;;5015356;28;20057;-79
2022/05/14 08:03:19;;;;;;;22.70;5.68;;;18.00;99.90;;;;;;5015489;28;20085;-79
2022/05/14 08:05:44;;;;;;;27.75;6.18;;;18.10;99.90;;;;;;5015677;28;20436;-79
2022/05/14 08:08:10;;;;;;;28.13;6.47;;;18.30;99.90;;;;;;5017878;28;20064;-79
2022/05/14 08:10:36;;;;;;;31.13;6.82;;;18.40;99.90;;;;;;5021983;28;20588;-79
2022/05/14 08:13:03;;;;;;;28.13;5.85;;;18.30;99.90;;;;;;5022248;28;20049;-79
2022/05/14 08:15:28;;;;;;;22.45;5.60;;;18.50;99.90;;;;;;5021044;28;20041;-79
2022/05/14 08:17:55;;;;;;;28.33;6.63;;;18.50;99.90;;;;;;5021781;28;20110;-79
2022/05/14 08:20:22;;;;;;;26.50;6.10;;;18.60;99.90;;;;;;5039826;28;20120;-79
2022/05/14 08:25:31;;;;;;;26.88;7.18;;;18.60;99.90;;;;;;5021159;28;20053;-79
2022/05/14 08:27:57;;;;;;;28.13;6.45;;;18.70;99.90;;;;;;5021734;28;20045;-79
2022/05/14 08:30:29;;;;;;;32.53;7.47;;;18.70;99.90;;;;;;5039652;28;20055;-79
2022/05/14 08:32:55;;;;;;;24.33;5.35;;;18.80;99.90;;;;;;5022022;28;20052;-79
2022/05/14 08:35:22;;;;;;;43.65;7.07;;;18.90;99.90;;;;;;5021476;28;20053;-79
2022/05/14 08:37:50;;;;;;;32.50;6.68;;;18.80;99.90;;;;;;5021638;28;20089;-79
2022/05/14 08:40:32;;;;;;;31.63;6.70;;;18.90;99.90;;;;;;5021017;28;20045;-79
2022/05/14 08:43:04;;;;;;;27.27;6.85;;;18.70;99.90;;;;;;5021474;28;20041;-79
2022/05/14 08:45:36;;;;;;;31.63;6.50;;;18.70;99.90;;;;;;5021494;28;20049;-79
2022/05/14 08:48:21;;;;;;;28.33;6.38;;;18.90;99.90;;;;;;5021508;28;20045;-79
2022/05/14 08:50:59;;;;;;;30.75;5.60;;;18.80;99.90;;;;;;5021603;28;20103;-79
2022/05/14 08:53:27;;;;;;;37.20;5.65;;;19.00;99.90;;;;;;5021578;28;20494;-80
2022/05/14 08:56:16;;;;;;;32.25;7.00;;;19.10;99.90;;;;;;5020403;28;20077;-79
2022/05/14 08:58:59;;;;;;;28.55;6.20;;;19.00;99.90;;;;;;5021706;28;20055;-79
2022/05/14 09:01:28;;;;;;;33.80;6.05;;;19.00;99.90;;;;;;5039157;28;20049;-79
2022/05/14 09:03:53;;;;;;;25.63;6.28;;;19.20;99.90;;;;;;5017626;28;20045;-80
2022/05/14 09:06:20;;;;;;;36.80;6.68;;;19.10;99.90;;;;;;5014273;28;20095;-80
2022/05/14 09:08:46;;;;;;;32.72;7.18;;;19.20;99.90;;;;;;5021630;28;20045;-80
2022/05/14 09:11:23;;;;;;;29.92;6.35;;;19.20;99.90;;;;;;5021744;28;20060;-80
2022/05/14 09:13:53;;;;;;;34.85;6.93;;;19.20;99.90;;;;;;5021255;28;20053;-80
2022/05/14 09:16:28;;;;;;;34.45;8.85;;;19.30;99.90;;;;;;5020809;28;20049;-79
2022/05/14 09:18:54;;;;;;;30.17;6.70;;;19.00;99.90;;;;;;5021513;28;20041;-79
2022/05/14 09:21:26;;;;;;;36.30;7.93;;;19.30;99.90;;;;;;5035034;28;20104;-79
2022/05/14 09:24:11;;;;;;;31.15;7.60;;;19.30;99.90;;;;;;5018187;28;20049;-79
2022/05/14 09:26:40;;;;;;;36.13;7.50;;;19.30;99.90;;;;;;5017858;28;20397;-80
2022/05/14 09:29:22;;;;;;;36.50;7.85;;;19.40;99.90;;;;;;5017967;28;20081;-79
2022/05/14 09:31:55;;;;;;;44.38;8.68;;;19.30;99.90;;;;;;5016190;28;20053;-79
2022/05/14 09:34:22;;;;;;;39.25;8.25;;;19.30;99.90;;;;;;5016937;28;20049;-79
2022/05/14 09:36:50;;;;;;;35.17;6.68;;;19.40;99.90;;;;;;5035399;28;20497;-79
2022/05/14 09:39:18;;;;;;;38.08;8.32;;;19.50;99.90;;;;;;5035843;28;20056;-79
2022/05/14 09:41:47;;;;;;;27.17;7.15;;;19.70;99.90;;;;;;5018231;28;20076;-79
2022/05/14 09:44:21;;;;;;;32.55;7.25;;;19.70;99.90;;;;;;5017753;28;20045;-79
2022/05/14 09:46:47;;;;;;;30.75;7.18;;;19.90;99.90;;;;;;5017890;28;20041;-79
2022/05/14 09:49:25;;;;;;;33.40;7.53;;;19.70;99.90;;;;;;5017621;28;20046;-79
2022/05/14 09:52:01;;;;;;;40.80;8.23;;;19.90;99.90;;;;;;5017714;28;20053;-77
2022/05/14 09:54:31;;;;;;;36.92;7.18;;;19.80;99.90;;;;;;5017740;28;20087;-85
2022/05/14 09:57:05;;;;;;;38.53;8.10;;;19.70;99.90;;;;;;5017647;28;20053;-84
2022/05/14 10:00:00;;;;;;;41.28;8.35;;;19.90;99.90;;;;;;5017463;28;20038;-84
2022/05/14 10:02:44;;;;;;;38.90;8.75;;;19.80;99.90;;;;;;5035494;28;20045;-85
2022/05/14 10:05:22;;;;;;;36.60;7.45;;;19.90;99.90;;;;;;5035217;28;20042;-84
2022/05/14 10:08:04;;;;;;;37.63;7.15;;;19.80;99.90;;;;;;5017344;28;20038;-80
2022/05/14 10:10:54;;;;;;;39.90;8.77;;;19.60;99.90;;;;;;5017290;28;20049;-80
2022/05/14 10:13:32;;;;;;;36.85;7.35;;;19.40;99.90;;;;;;5035183;28;20042;-80
2022/05/14 10:16:22;;;;;;;28.83;7.07;;;19.40;99.90;;;;;;5033650;28;20057;-80
2022/05/14 10:18:56;;;;;;;40.10;8.93;;;19.60;99.90;;;;;;5017429;28;20449;-85
2022/05/14 10:21:52;;;;;;;30.55;6.30;;;19.80;99.90;;;;;;5017384;28;20041;-82
2022/05/14 10:28:00;;;;;;;37.85;7.07;;;19.90;99.90;;;;;;5017019;28;20060;-84
2022/05/14 10:30:36;;;;;;;44.15;8.02;;;19.90;99.90;;;;;;5016976;28;20041;-85
2022/05/14 10:33:10;;;;;;;35.80;7.65;;;19.80;99.90;;;;;;5017010;28;20132;-85
2022/05/14 10:35:59;;;;;;;;;;;19.80;99.90;;;;;;5017111;28;20088;-86
2022/05/14 10:38:43;;;;;;;45.28;8.32;;;19.70;99.90;;;;;;5008846;28;20327;-83
2022/05/14 10:41:09;;;;;;;37.97;8.70;;;20.00;99.90;;;;;;5034591;28;20087;-84
2022/05/14 10:43:47;;;;;;;31.98;7.95;;;20.00;99.90;;;;;;5034430;28;20045;-84
2022/05/14 10:46:18;;;;;;;41.53;7.97;;;20.10;99.90;;;;;;5016999;28;20537;-84
2022/05/14 10:49:22;;;;;;;45.38;7.95;;;20.10;99.90;;;;;;5016971;28;20050;-87
2022/05/14 10:51:50;;;;;;;37.13;7.13;;;20.10;99.90;;;;;;5034512;28;20045;-82
2022/05/14 10:54:22;;;;;;;43.28;8.60;;;19.90;99.90;;;;;;5016520;28;20045;-84
2022/05/14 10:56:56;;;;;;;36.92;7.40;;;19.90;99.90;;;;;;5016726;28;20049;-79
2022/05/14 10:59:35;;;;;;;34.15;7.60;;;19.90;99.90;;;;;;5016749;28;20053;-79
2022/05/14 11:02:07;;;;;;;38.55;8.60;;;19.90;99.90;;;;;;5034111;28;20120;-81
2022/05/14 11:04:48;;;;;;;34.88;8.00;;;19.80;99.90;;;;;;5027743;28;20038;-81
2022/05/14 11:07:34;;;;;;;38.08;7.82;;;19.80;99.90;;;;;;4996580;28;20054;-81
2022/05/14 11:10:17;;;;;;;38.75;7.53;;;20.30;99.90;;;;;;4989740;28;20057;-80
2022/05/14 11:12:43;;;;;;;36.28;7.10;;;20.40;99.90;;;;;;4996499;28;20050;-80
2022/05/14 11:15:39;;;;;;;32.20;7.40;;;20.30;99.90;;;;;;4996299;28;20065;-80
2022/05/14 11:18:12;;;;;;;37.88;8.57;;;19.90;99.90;;;;;;4987912;28;20060;-82
2022/05/14 11:20:50;;;;;;;35.10;7.65;;;20.00;99.90;;;;;;5014047;28;20045;-81
2022/05/14 11:23:16;;;;;;;40.75;7.07;;;20.10;99.90;;;;;;5013885;28;20042;-81
2022/05/14 11:25:42;;;;;;;42.92;7.95;;;20.20;99.90;;;;;;4996246;28;20050;-81
2022/05/14 11:28:17;;;;;;;55.28;9.35;;;20.00;99.90;;;;;;4996339;28;20073;-81
2022/05/14 11:30:44;;;;;;;32.83;7.65;;;20.10;99.90;;;;;;4996402;28;20502;-81
2022/05/14 11:33:24;;;;;;;39.10;7.55;;;20.20;99.90;;;;;;4996271;28;20042;-81
2022/05/14 11:35:56;;;;;;;36.10;7.97;;;20.40;99.90;;;;;;4995685;28;20062;-81
2022/05/14 11:38:24;;;;;;;40.03;8.35;;;20.30;99.90;;;;;;4996078;28;20130;-81
2022/05/14 11:41:04;;;;;;;38.00;7.20;;;20.30;99.90;;;;;;4996265;28;20498;-81
2022/05/14 11:43:38;;;;;;;55.17;8.38;;;20.60;99.90;;;;;;5013172;28;20117;-81
2022/05/14 11:46:19;;;;;;;35.17;8.27;;;20.50;99.90;;;;;;5013725;28;20038;-81
2022/05/14 11:49:07;;;;;;;38.03;7.75;;;20.50;99.90;;;;;;5013585;28;20038;-82
2022/05/14 11:51:43;;;;;;;42.03;9.02;;;20.60;99.90;;;;;;5013613;28;20124;-82
2022/05/14 11:54:17;;;;;;;48.83;8.70;;;20.60;99.90;;;;;;4995997;28;20038;-81
2022/05/14 11:56:57;;;;;;;42.35;8.88;;;20.40;99.90;;;;;;4995845;28;20045;-80
2022/05/14 11:59:49;;;;;;;45.05;10.00;;;20.60;99.90;;;;;;4995606;28;20085;-82
2022/05/14 12:02:35;;;;;;;37.17;8.65;;;20.60;99.90;;;;;;4995822;28;20095;-82
2022/05/14 12:05:03;;;;;;;55.10;10.38;;;20.70;99.90;;;;;;4996110;28;20121;-81
2022/05/14 12:07:41;;;;;;;45.78;8.73;;;20.90;99.90;;;;;;4996071;28;20053;-82
2022/05/14 12:10:16;;;;;;;43.03;9.02;;;20.80;99.90;;;;;;4995762;28;20387;-82
2022/05/14 12:13:16;;;;;;;38.15;8.73;;;20.80;99.90;;;;;;4996103;28;20133;-82
2022/05/14 12:15:54;;;;;;;46.50;8.68;;;20.60;99.90;;;;;;5013237;28;20486;-82
2022/05/14 12:18:21;;;;;;;46.78;8.98;;;20.50;99.90;;;;;;4996076;28;20092;-82
2022/05/14 12:20:59;;;;;;;45.28;9.00;;;20.50;99.90;;;;;;5013600;28;20082;-82
2022/05/14 12:23:33;;;;;;;40.03;8.13;;;20.40;99.90;;;;;;4995675;28;20502;-82
2022/05/14 12:25:59;;;;;;;39.65;8.40;;;20.40;99.90;;;;;;4995679;28;20077;-81
2022/05/14 12:28:33;;;;;;;36.55;8.88;;;20.50;99.90;;;;;;5013198;28;20080;-81
2022/05/14 12:34:02;;;;;;;50.28;9.90;;;20.30;99.90;;;;;;5013247;28;20089;-82
2022/05/14 12:36:33;;;;;;;45.25;8.93;;;20.40;99.90;;;;;;4995481;28;20062;-82
2022/05/14 12:39:03;;;;;;;41.92;9.15;;;20.40;99.90;;;;;;4996120;28;20057;-81
2022/05/14 12:41:36;;;;;;;44.15;8.90;;;20.50;99.90;;;;;;4995768;28;20054;-81
2022/05/14 12:44:08;;;;;;;;;;;20.60;99.90;;;;;;5013858;28;20050;-82
2022/05/14 12:46:38;;;;;;;40.33;8.60;;;20.60;99.90;;;;;;5013018;28;19937;-82
2022/05/14 12:49:05;;;;;;;50.20;8.85;;;20.60;99.90;;;;;;5013232;28;20041;-82
2022/05/14 12:51:31;;;;;;;48.80;11.25;;;20.50;99.90;;;;;;4995673;28;20061;-81
2022/05/14 12:53:56;;;;;;;38.30;8.90;;;20.60;99.90;;;;;;4995646;28;20042;-83
2022/05/14 12:56:28;;;;;;;48.85;9.82;;;20.40;99.90;;;;;;4998442;28;20046;-82
2022/05/14 12:58:54;;;;;;;39.05;8.48;;;20.50;99.90;;;;;;4999180;28;20046;-82
2022/05/14 13:01:21;;;;;;;45.75;9.75;;;20.60;99.90;;;;;;5016645;28;20060;-83
2022/05/14 13:03:52;;;;;;;43.53;10.15;;;20.60;99.90;;;;;;4999260;28;20046;-83
2022/05/14 13:06:29;;;;;;;39.80;8.00;;;20.70;99.90;;;;;;5016747;28;20125;-82
2022/05/14 13:08:59;;;;;;;42.55;8.73;;;20.80;99.90;;;;;;5016544;28;20081;-81
2022/05/14 13:11:28;;;;;;;38.00;8.85;;;20.80;99.90;;;;;;4998926;28;20551;-82